sensor_id;sensor_type;location;lat;lon;timestamp;temperature;humidity
20957;DHT22;10637;47.970;7.830;2023-08-06T00:00:56;17.40;99.90
20957;DHT22;10637;47.970;7.830;2023-08-06T00:05:59;16.80;99.90
20957;DHT22;10637;47.970;7.830;2023-08-06T00:11:01;16.70;99.90
20957;DHT22;10637;47.970;7.830;2023-08-06T00:16:10;16.70;99.90
20957;DHT22;10637;47.970;7.830;2023-08-06T00:21:13;16.90;99.90
20957;DHT22;10637;47.970;7.830;2023-08-06T00:26:15;17.30;99.90
20957;DHT22;10637;47.970;7.830;2023-08-06T00:31:17;17.60;99.90
20957;DHT22;10637;47.970;7.830;2023-08-06T00:36:19;17.40;99.90
20957;DHT22;10637;47.970;7.830;2023-08-06T00:41:23;17.70;99.90
20957;DHT22;10637;47.970;7.830;2023-08-06T00:46:26;17.50;99.90
20957;DHT22;10637;47.970;7.830;2023-08-06T00:51:29;17.40;99.90
20957;DHT22;10637;47.970;7.830;2023-08-06T00:56:33;17.50;99.90
20957;DHT22;10637;47.970;7.830;2023-08-06T01:01:37;17.60;99.90
20957;DHT22;10637;47.970;7.830;2023-08-06T01:11:59;17.90;99.90
20957;DHT22;10637;47.970;7.830;2023-08-06T01:17:05;17.70;99.90
20957;DHT22;10637;47.970;7.830;2023-08-06T01:22:09;17.90;99.90
20957;DHT22;10637;47.970;7.830;2023-08-06T01:27:38;18.00;99.90
20957;DHT22;10637;47.970;7.830;2023-08-06T01:32:48;18.00;99.90
20957;DHT22;10637;47.970;7.830;2023-08-06T01:37:51;17.80;99.90
20957;DHT22;10637;47.970;7.830;2023-08-06T01:42:53;17.80;99.90
20957;DHT22;10637;47.970;7.830;2023-08-06T01:47:55;17.60;99.90
20957;DHT22;10637;47.970;7.830;2023-08-06T01:52:57;17.60;99.90
20957;DHT22;10637;47.970;7.830;2023-08-06T01:57:59;17.60;99.90
20957;DHT22;10637;47.970;7.830;2023-08-06T02:03:01;17.70;99.90
20957;DHT22;10637;47.970;7.830;2023-08-06T02:08:03;17.80;99.90
20957;DHT22;10637;47.970;7.830;2023-08-06T02:13:05;17.90;99.90
20957;DHT22;10637;47.970;7.830;2023-08-06T02:18:07;17.50;99.90
20957;DHT22;10637;47.970;7.830;2023-08-06T02:23:12;17.30;99.90
20957;DHT22;10637;47.970;7.830;2023-08-06T02:28:15;17.20;99.90
20957;DHT22;10637;47.970;7.830;2023-08-06T02:33:17;16.60;99.90
20957;DHT22;10637;47.970;7.830;2023-08-06T02:38:19;16.40;99.90
20957;DHT22;10637;47.970;7.830;2023-08-06T02:43:21;16.30;99.90
20957;DHT22;10637;47.970;7.830;2023-08-06T02:48:23;16.30;99.90
20957;DHT22;10637;47.970;7.830;2023-08-06T02:53:25;15.80;99.90
20957;DHT22;10637;47.970;7.830;2023-08-06T02:58:27;15.20;99.90
20957;DHT22;10637;47.970;7.830;2023-08-06T03:03:30;14.80;99.90
20957;DHT22;10637;47.970;7.830;2023-08-06T03:08:33;14.80;99.90
20957;DHT22;10637;47.970;7.830;2023-08-06T03:13:35;14.90;99.90
20957;DHT22;10637;47.970;7.830;2023-08-06T03:18:37;14.90;99.90
20957;DHT22;10637;47.970;7.830;2023-08-06T03:23:38;14.80;99.90
20957;DHT22;10637;47.970;7.830;2023-08-06T03:28:40;14.90;99.90
20957;DHT22;10637;47.970;7.830;2023-08-06T03:33:42;15.10;99.90
20957;DHT22;10637;47.970;7.830;2023-08-06T03:38:44;15.30;99.90
20957;DHT22;10637;47.970;7.830;2023-08-06T03:43:47;15.40;99.90
20957;DHT22;10637;47.970;7.830;2023-08-06T03:48:49;15.30;99.90
20957;DHT22;10637;47.970;7.830;2023-08-06T03:53:50;15.10;99.90
20957;DHT22;10637;47.970;7.830;2023-08-06T03:58:52;14.90;99.90
20957;DHT22;10637;47.970;7.830;2023-08-06T04:03:54;15.00;99.90
20957;DHT22;10637;47.970;7.830;2023-08-06T04:08:56;15.10;99.90
20957;DHT22;10637;47.970;7.830;2023-08-06T04:13:58;14.80;99.90
20957;DHT22;10637;47.970;7.830;2023-08-06T04:19:00;14.70;99.90
20957;DHT22;10637;47.970;7.830;2023-08-06T04:24:02;14.60;99.90
20957;DHT22;10637;47.970;7.830;2023-08-06T04:29:04;14.30;99.90
20957;DHT22;10637;47.970;7.830;2023-08-06T04:34:06;14.40;99.90
20957;DHT22;10637;47.970;7.830;2023-08-06T04:39:10;14.40;99.90
20957;DHT22;10637;47.970;7.830;2023-08-06T04:44:12;14.40;99.90
20957;DHT22;10637;47.970;7.830;2023-08-06T04:49:14;14.40;99.90
20957;DHT22;10637;47.970;7.830;2023-08-06T04:54:17;14.40;99.90
20957;DHT22;10637;47.970;7.830;2023-08-06T04:59:19;14.30;99.90
20957;DHT22;10637;47.970;7.830;2023-08-06T05:04:21;14.50;99.90
20957;DHT22;10637;47.970;7.830;2023-08-06T05:09:23;14.40;99.90
20957;DHT22;10637;47.970;7.830;2023-08-06T05:14:24;14.20;99.90
20957;DHT22;10637;47.970;7.830;2023-08-06T05:19:26;13.90;99.90
20957;DHT22;10637;47.970;7.830;2023-08-06T05:24:29;13.90;99.90
20957;DHT22;10637;47.970;7.830;2023-08-06T05:29:31;14.10;99.90
20957;DHT22;10637;47.970;7.830;2023-08-06T05:34:36;13.60;99.90
20957;DHT22;10637;47.970;7.830;2023-08-06T05:39:38;13.70;99.90
20957;DHT22;10637;47.970;7.830;2023-08-06T05:44:40;13.80;99.90
20957;DHT22;10637;47.970;7.830;2023-08-06T05:49:43;13.90;99.90
20957;DHT22;10637;47.970;7.830;2023-08-06T05:54:48;13.80;99.90
20957;DHT22;10637;47.970;7.830;2023-08-06T05:59:50;13.80;99.90
20957;DHT22;10637;47.970;7.830;2023-08-06T06:04:52;14.00;99.90
20957;DHT22;10637;47.970;7.830;2023-08-06T06:09:54;13.90;99.90
20957;DHT22;10637;47.970;7.830;2023-08-06T06:14:56;13.90;99.90
20957;DHT22;10637;47.970;7.830;2023-08-06T06:19:58;13.90;99.90
20957;DHT22;10637;47.970;7.830;2023-08-06T06:25:00;13.90;99.90
20957;DHT22;10637;47.970;7.830;2023-08-06T06:30:03;13.90;99.90
20957;DHT22;10637;47.970;7.830;2023-08-06T06:35:06;13.90;99.90
20957;DHT22;10637;47.970;7.830;2023-08-06T06:40:08;13.80;99.90
20957;DHT22;10637;47.970;7.830;2023-08-06T06:45:10;13.90;99.90
20957;DHT22;10637;47.970;7.830;2023-08-06T06:50:12;13.80;99.90
20957;DHT22;10637;47.970;7.830;2023-08-06T06:55:15;13.90;99.90
20957;DHT22;10637;47.970;7.830;2023-08-06T07:00:17;13.90;99.90
20957;DHT22;10637;47.970;7.830;2023-08-06T07:05:19;13.80;99.90
20957;DHT22;10637;47.970;7.830;2023-08-06T07:10:21;13.80;99.90
20957;DHT22;10637;47.970;7.830;2023-08-06T07:15:23;13.60;99.90
20957;DHT22;10637;47.970;7.830;2023-08-06T07:20:25;13.70;99.90
20957;DHT22;10637;47.970;7.830;2023-08-06T07:25:27;13.90;99.90
20957;DHT22;10637;47.970;7.830;2023-08-06T07:30:29;13.90;99.90
20957;DHT22;10637;47.970;7.830;2023-08-06T07:35:32;14.10;99.90
20957;DHT22;10637;47.970;7.830;2023-08-06T07:40:36;14.00;99.90
20957;DHT22;10637;47.970;7.830;2023-08-06T07:45:39;14.10;99.90
20957;DHT22;10637;47.970;7.830;2023-08-06T07:50:41;14.20;99.90
20957;DHT22;10637;47.970;7.830;2023-08-06T07:55:47;14.20;99.90
20957;DHT22;10637;47.970;7.830;2023-08-06T08:00:49;14.20;99.90
20957;DHT22;10637;47.970;7.830;2023-08-06T08:05:54;14.30;99.90
20957;DHT22;10637;47.970;7.830;2023-08-06T08:10:59;14.40;99.90
20957;DHT22;10637;47.970;7.830;2023-08-06T08:16:02;14.40;99.90
20957;DHT22;10637;47.970;7.830;2023-08-06T08:21:04;14.40;99.90
20957;DHT22;10637;47.970;7.830;2023-08-06T08:26:06;14.70;99.90
20957;DHT22;10637;47.970;7.830;2023-08-06T08:31:09;14.50;99.90
20957;DHT22;10637;47.970;7.830;2023-08-06T08:36:12;14.30;99.90
20957;DHT22;10637;47.970;7.830;2023-08-06T08:41:15;14.30;99.90
20957;DHT22;10637;47.970;7.830;2023-08-06T08:46:19;14.20;99.90
20957;DHT22;10637;47.970;7.830;2023-08-06T08:51:23;14.10;99.90
20957;DHT22;10637;47.970;7.830;2023-08-06T08:56:25;14.30;99.90
20957;DHT22;10637;47.970;7.830;2023-08-06T09:01:27;14.40;99.90
20957;DHT22;10637;47.970;7.830;2023-08-06T09:06:32;14.50;99.90
20957;DHT22;10637;47.970;7.830;2023-08-06T09:11:42;14.40;99.90
20957;DHT22;10637;47.970;7.830;2023-08-06T09:16:44;14.40;99.90
20957;DHT22;10637;47.970;7.830;2023-08-06T09:21:51;14.60;99.90
20957;DHT22;10637;47.970;7.830;2023-08-06T09:26:54;14.70;99.90
20957;DHT22;10637;47.970;7.830;2023-08-06T09:31:56;14.60;99.90
20957;DHT22;10637;47.970;7.830;2023-08-06T09:37:00;14.60;99.90
20957;DHT22;10637;47.970;7.830;2023-08-06T09:42:02;14.60;99.90
20957;DHT22;10637;47.970;7.830;2023-08-06T09:47:05;14.70;99.90
20957;DHT22;10637;47.970;7.830;2023-08-06T09:52:11;14.80;99.90
20957;DHT22;10637;47.970;7.830;2023-08-06T09:57:14;14.80;99.90
20957;DHT22;10637;47.970;7.830;2023-08-06T10:02:17;14.70;99.90
20957;DHT22;10637;47.970;7.830;2023-08-06T10:07:21;15.00;99.90
20957;DHT22;10637;47.970;7.830;2023-08-06T10:12:28;15.00;99.90
20957;DHT22;10637;47.970;7.830;2023-08-06T10:17:31;15.00;99.90
20957;DHT22;10637;47.970;7.830;2023-08-06T10:23:04;15.10;99.90
20957;DHT22;10637;47.970;7.830;2023-08-06T10:28:11;15.10;99.90
20957;DHT22;10637;47.970;7.830;2023-08-06T10:33:19;15.30;99.90
20957;DHT22;10637;47.970;7.830;2023-08-06T10:38:24;14.90;99.90
20957;DHT22;10637;47.970;7.830;2023-08-06T10:43:36;14.70;99.90
20957;DHT22;10637;47.970;7.830;2023-08-06T10:48:43;14.80;99.90
20957;DHT22;10637;47.970;7.830;2023-08-06T10:53:49;15.00;99.90
20957;DHT22;10637;47.970;7.830;2023-08-06T10:58:54;15.10;99.90
20957;DHT22;10637;47.970;7.830;2023-08-06T11:04:02;15.00;99.90
20957;DHT22;10637;47.970;7.830;2023-08-06T11:09:04;15.10;99.90
20957;DHT22;10637;47.970;7.830;2023-08-06T11:14:15;14.90;99.90
20957;DHT22;10637;47.970;7.830;2023-08-06T11:19:18;14.90;99.90
20957;DHT22;10637;47.970;7.830;2023-08-06T11:24:20;15.00;99.90
20957;DHT22;10637;47.970;7.830;2023-08-06T11:29:22;14.90;99.90
20957;DHT22;10637;47.970;7.830;2023-08-06T11:34:27;15.00;99.90
20957;DHT22;10637;47.970;7.830;2023-08-06T11:39:29;15.00;99.90
20957;DHT22;10637;47.970;7.830;2023-08-06T11:44:33;15.20;99.90
20957;DHT22;10637;47.970;7.830;2023-08-06T11:49:44;15.30;99.90
20957;DHT22;10637;47.970;7.830;2023-08-06T11:54:59;15.40;99.90
20957;DHT22;10637;47.970;7.830;2023-08-06T12:00:06;15.60;99.90
20957;DHT22;10637;47.970;7.830;2023-08-06T12:05:17;15.50;99.90
20957;DHT22;10637;47.970;7.830;2023-08-06T12:10:20;15.20;99.90
20957;DHT22;10637;47.970;7.830;2023-08-06T12:15:22;15.60;99.90
20957;DHT22;10637;47.970;7.830;2023-08-06T12:20:25;15.90;99.90
20957;DHT22;10637;47.970;7.830;2023-08-06T12:25:27;16.00;99.90
20957;DHT22;10637;47.970;7.830;2023-08-06T12:30:29;15.70;99.90
20957;DHT22;10637;47.970;7.830;2023-08-06T12:35:30;16.00;99.90
20957;DHT22;10637;47.970;7.830;2023-08-06T12:40:32;16.60;99.90
20957;DHT22;10637;47.970;7.830;2023-08-06T12:45:40;16.60;99.90
20957;DHT22;10637;47.970;7.830;2023-08-06T12:50:42;16.50;99.90
20957;DHT22;10637;47.970;7.830;2023-08-06T12:55:44;16.80;99.90
20957;DHT22;10637;47.970;7.830;2023-08-06T13:00:45;17.70;99.90
20957;DHT22;10637;47.970;7.830;2023-08-06T13:05:47;18.00;99.90
20957;DHT22;10637;47.970;7.830;2023-08-06T13:10:49;17.90;99.90
20957;DHT22;10637;47.970;7.830;2023-08-06T13:15:51;18.40;99.90
20957;DHT22;10637;47.970;7.830;2023-08-06T13:20:54;19.10;99.90
20957;DHT22;10637;47.970;7.830;2023-08-06T13:25:56;18.90;99.90
20957;DHT22;10637;47.970;7.830;2023-08-06T13:30:57;18.30;99.90
20957;DHT22;10637;47.970;7.830;2023-08-06T13:35:59;18.30;99.90
20957;DHT22;10637;47.970;7.830;2023-08-06T13:41:01;18.10;99.90
20957;DHT22;10637;47.970;7.830;2023-08-06T13:46:03;18.20;99.90
20957;DHT22;10637;47.970;7.830;2023-08-06T13:51:05;18.30;99.90
20957;DHT22;10637;47.970;7.830;2023-08-06T13:56:08;18.60;99.90
20957;DHT22;10637;47.970;7.830;2023-08-06T14:01:13;18.70;99.90
20957;DHT22;10637;47.970;7.830;2023-08-06T14:06:18;19.10;99.90
20957;DHT22;10637;47.970;7.830;2023-08-06T14:11:20;18.70;99.90
20957;DHT22;10637;47.970;7.830;2023-08-06T14:16:21;17.80;99.90
20957;DHT22;10637;47.970;7.830;2023-08-06T14:21:23;17.60;99.90
20957;DHT22;10637;47.970;7.830;2023-08-06T14:26:25;17.00;99.90
20957;DHT22;10637;47.970;7.830;2023-08-06T14:31:27;16.90;99.90
20957;DHT22;10637;47.970;7.830;2023-08-06T14:36:29;17.30;99.90
20957;DHT22;10637;47.970;7.830;2023-08-06T14:41:30;17.30;99.90
20957;DHT22;10637;47.970;7.830;2023-08-06T14:46:32;18.20;99.90
20957;DHT22;10637;47.970;7.830;2023-08-06T14:51:34;18.70;99.90
20957;DHT22;10637;47.970;7.830;2023-08-06T14:56:36;20.00;99.90
20957;DHT22;10637;47.970;7.830;2023-08-06T15:01:38;19.50;99.90
20957;DHT22;10637;47.970;7.830;2023-08-06T15:06:40;19.20;99.90
20957;DHT22;10637;47.970;7.830;2023-08-06T15:11:41;18.50;99.90
20957;DHT22;10637;47.970;7.830;2023-08-06T15:16:46;17.90;99.90
20957;DHT22;10637;47.970;7.830;2023-08-06T15:21:48;18.20;99.90
20957;DHT22;10637;47.970;7.830;2023-08-06T15:26:50;18.20;99.90
20957;DHT22;10637;47.970;7.830;2023-08-06T15:31:52;18.80;99.90
20957;DHT22;10637;47.970;7.830;2023-08-06T15:36:54;19.00;99.90
20957;DHT22;10637;47.970;7.830;2023-08-06T15:41:56;18.50;99.90
20957;DHT22;10637;47.970;7.830;2023-08-06T15:46:58;18.90;99.90
20957;DHT22;10637;47.970;7.830;2023-08-06T15:52:00;18.90;99.90
20957;DHT22;10637;47.970;7.830;2023-08-06T15:57:02;19.10;99.90
20957;DHT22;10637;47.970;7.830;2023-08-06T16:02:05;18.90;99.90
20957;DHT22;10637;47.970;7.830;2023-08-06T16:07:08;19.00;99.90
20957;DHT22;10637;47.970;7.830;2023-08-06T16:12:10;18.30;99.90
20957;DHT22;10637;47.970;7.830;2023-08-06T16:17:12;17.90;99.90
20957;DHT22;10637;47.970;7.830;2023-08-06T16:22:13;17.60;99.90
20957;DHT22;10637;47.970;7.830;2023-08-06T16:27:15;17.70;99.90
20957;DHT22;10637;47.970;7.830;2023-08-06T16:32:17;17.30;99.90
20957;DHT22;10637;47.970;7.830;2023-08-06T16:37:18;17.10;99.90
20957;DHT22;10637;47.970;7.830;2023-08-06T16:42:20;17.10;99.90
20957;DHT22;10637;47.970;7.830;2023-08-06T16:47:22;17.10;99.90
20957;DHT22;10637;47.970;7.830;2023-08-06T16:52:24;17.80;99.90
20957;DHT22;10637;47.970;7.830;2023-08-06T16:57:25;18.70;99.90
20957;DHT22;10637;47.970;7.830;2023-08-06T17:02:27;19.10;99.90
20957;DHT22;10637;47.970;7.830;2023-08-06T17:07:29;19.40;99.90
20957;DHT22;10637;47.970;7.830;2023-08-06T17:12:31;19.00;99.90
20957;DHT22;10637;47.970;7.830;2023-08-06T17:17:33;18.50;99.90
20957;DHT22;10637;47.970;7.830;2023-08-06T17:22:34;18.00;99.90
20957;DHT22;10637;47.970;7.830;2023-08-06T17:27:36;17.70;99.90
20957;DHT22;10637;47.970;7.830;2023-08-06T17:32:38;17.90;99.90
20957;DHT22;10637;47.970;7.830;2023-08-06T17:37:41;18.30;99.90
20957;DHT22;10637;47.970;7.830;2023-08-06T17:42:43;18.20;99.90
20957;DHT22;10637;47.970;7.830;2023-08-06T17:47:45;19.00;99.90
20957;DHT22;10637;47.970;7.830;2023-08-06T17:52:49;17.70;99.90
20957;DHT22;10637;47.970;7.830;2023-08-06T17:57:51;17.00;99.90
20957;DHT22;10637;47.970;7.830;2023-08-06T18:02:53;17.00;99.90
20957;DHT22;10637;47.970;7.830;2023-08-06T18:07:55;16.70;99.90
20957;DHT22;10637;47.970;7.830;2023-08-06T18:12:57;16.90;99.90
20957;DHT22;10637;47.970;7.830;2023-08-06T18:17:58;17.00;99.90
20957;DHT22;10637;47.970;7.830;2023-08-06T18:23:00;17.00;99.90
20957;DHT22;10637;47.970;7.830;2023-08-06T18:28:03;16.80;99.90
20957;DHT22;10637;47.970;7.830;2023-08-06T18:33:05;16.60;99.90
20957;DHT22;10637;47.970;7.830;2023-08-06T18:38:06;16.30;99.90
20957;DHT22;10637;47.970;7.830;2023-08-06T18:43:08;15.90;99.90
20957;DHT22;10637;47.970;7.830;2023-08-06T18:48:10;15.90;99.90
20957;DHT22;10637;47.970;7.830;2023-08-06T18:53:13;15.90;99.90
20957;DHT22;10637;47.970;7.830;2023-08-06T18:58:16;15.80;99.90
20957;DHT22;10637;47.970;7.830;2023-08-06T19:03:18;16.00;99.90
20957;DHT22;10637;47.970;7.830;2023-08-06T19:08:20;16.30;99.90
20957;DHT22;10637;47.970;7.830;2023-08-06T19:13:22;16.20;99.90
20957;DHT22;10637;47.970;7.830;2023-08-06T19:18:24;16.10;99.90
20957;DHT22;10637;47.970;7.830;2023-08-06T19:23:25;15.90;99.90
20957;DHT22;10637;47.970;7.830;2023-08-06T19:28:30;15.70;99.90
20957;DHT22;10637;47.970;7.830;2023-08-06T19:33:32;15.70;99.90
20957;DHT22;10637;47.970;7.830;2023-08-06T19:38:34;15.80;99.90
20957;DHT22;10637;47.970;7.830;2023-08-06T19:43:36;15.80;99.90
20957;DHT22;10637;47.970;7.830;2023-08-06T19:48:38;15.90;99.90
20957;DHT22;10637;47.970;7.830;2023-08-06T19:53:39;15.60;99.90
